createdAt,value
2019-05-06T05:21:37.828Z,14.70
2019-05-06T05:24:07.131Z,15.40
2019-05-06T05:26:37.298Z,17.10
2019-05-06T05:29:06.653Z,18.60
2019-05-06T05:31:35.744Z,19.80
2019-05-06T05:34:04.856Z,20.80
2019-05-06T05:36:33.937Z,21.50
2019-05-06T05:39:03.469Z,21.80
2019-05-06T05:41:33.701Z,22.60
2019-05-06T05:44:04.471Z,23.00
2019-05-06T05:46:38.121Z,23.30
2019-05-06T05:49:22.560Z,23.90
2019-05-06T05:51:53.998Z,24.10
2019-05-06T05:54:23.314Z,23.40
2019-05-06T05:56:56.188Z,23.90
2019-05-06T05:59:26.720Z,23.70
2019-05-06T06:01:56.101Z,23.70
2019-05-06T06:04:25.474Z,24.00
2019-05-06T06:06:54.880Z,24.10
2019-05-06T06:09:25.704Z,23.90
2019-05-06T06:11:56.497Z,24.50
2019-05-06T06:14:44.441Z,24.60
2019-05-06T06:17:32.567Z,23.50
2019-05-06T06:20:09.436Z,23.70
2019-05-06T06:22:38.658Z,24.10
2019-05-06T06:25:08.981Z,24.60
2019-05-06T06:27:53.521Z,24.50
2019-05-06T06:30:33.522Z,24.90
2019-05-06T06:33:02.783Z,25.80
2019-05-06T06:35:33.510Z,25.60
2019-05-06T06:38:07.745Z,26.10
2019-05-06T06:40:37.353Z,26.60
2019-05-06T06:43:08.024Z,26.30
2019-05-06T06:45:37.578Z,26.30
2019-05-06T06:48:07.042Z,26.10
2019-05-06T06:50:37.049Z,26.20
2019-05-06T06:53:07.426Z,26.40
2019-05-06T06:55:37.112Z,25.30
2019-05-06T06:58:22.768Z,24.80
2019-05-06T07:01:03.400Z,25.30
2019-05-06T07:03:38.309Z,25.90
2019-05-06T07:06:10.357Z,26.00
2019-05-06T07:08:42.617Z,26.80
2019-05-06T07:11:13.070Z,26.50
2019-05-06T07:13:45.225Z,26.50
2019-05-06T07:16:14.410Z,27.00
2019-05-06T07:18:43.507Z,27.50
2019-05-06T07:21:14.245Z,27.60
2019-05-06T07:23:43.180Z,28.00
2019-05-06T07:26:16.665Z,27.40
2019-05-06T07:28:47.196Z,27.30
2019-05-06T07:31:22.214Z,27.60
2019-05-06T07:33:46.993Z,27.10
2019-05-06T07:36:15.992Z,27.40
2019-05-06T07:38:52.562Z,27.70
2019-05-06T07:41:23.517Z,27.50
2019-05-06T07:44:12.814Z,27.90
2019-05-06T07:46:55.526Z,27.30
2019-05-06T07:49:27.321Z,27.10
2019-05-06T07:51:56.421Z,27.60
2019-05-06T07:54:25.511Z,27.80
2019-05-06T07:56:54.606Z,27.70
2019-05-06T07:59:27.333Z,26.90
2019-05-06T08:01:56.489Z,25.10
2019-05-06T08:04:25.579Z,24.90
2019-05-06T08:06:54.620Z,25.20
2019-05-06T08:09:23.672Z,26.10
2019-05-06T08:11:53.160Z,27.10
2019-05-06T08:14:23.749Z,27.60
2019-05-06T08:16:54.505Z,27.70
2019-05-06T08:19:24.753Z,26.90
2019-05-06T08:22:02.758Z,26.20
2019-05-06T08:24:36.357Z,26.80
2019-05-06T08:27:05.457Z,26.80
2019-05-06T08:29:34.649Z,27.10
2019-05-06T08:32:03.648Z,26.40
2019-05-06T08:34:34.287Z,25.80
2019-05-06T08:37:08.075Z,25.30
2019-05-06T08:39:37.271Z,25.20
2019-05-06T08:42:06.368Z,25.90
2019-05-06T08:44:35.464Z,25.80
2019-05-06T08:47:04.660Z,25.90
2019-05-06T08:49:35.425Z,26.40
2019-05-06T08:52:06.126Z,26.70
2019-05-06T08:54:37.857Z,26.50
2019-05-06T08:57:07.083Z,25.70
2019-05-06T08:59:36.076Z,25.50
2019-05-06T09:02:09.206Z,25.10
2019-05-06T09:04:38.230Z,23.80
2019-05-06T09:07:07.455Z,22.00
2019-05-06T09:09:36.547Z,20.00
2019-05-06T09:12:05.641Z,18.30
2019-05-06T09:14:34.739Z,17.20
2019-05-06T09:17:04.346Z,17.00
2019-05-06T09:19:36.717Z,16.80
2019-05-06T09:22:06.937Z,16.60
2019-05-06T09:24:36.033Z,16.50
2019-05-06T09:27:16.428Z,16.30
2019-05-06T09:29:48.047Z,16.20
2019-05-06T09:32:19.493Z,16.20
2019-05-06T09:34:53.193Z,16.00
2019-05-06T09:37:23.550Z,16.10
2019-05-06T09:39:53.444Z,16.10
2019-05-06T09:42:23.204Z,16.20
2019-05-06T09:44:54.015Z,16.00
2019-05-06T09:47:25.852Z,16.00
2019-05-06T09:49:54.945Z,16.20
2019-05-06T09:52:26.290Z,16.20
2019-05-06T09:54:57.832Z,16.00
2019-05-06T09:57:34.526Z,15.40
2019-05-06T10:00:05.025Z,14.90
2019-05-06T10:02:34.133Z,14.60
2019-05-06T10:05:03.694Z,14.30
2019-05-06T10:07:34.020Z,14.30
2019-05-06T10:10:03.250Z,14.40
2019-05-06T10:12:32.901Z,14.30
2019-05-06T10:15:04.197Z,14.20
2019-05-06T10:17:33.306Z,14.40
2019-05-06T10:20:03.078Z,14.60
2019-05-06T10:22:36.098Z,14.90
2019-05-06T10:25:08.081Z,14.70
2019-05-06T10:27:42.127Z,14.50
2019-05-06T10:30:14.777Z,14.50
2019-05-06T10:32:45.596Z,14.40
2019-05-06T10:35:15.092Z,14.50
2019-05-06T10:38:02.972Z,14.90
2019-05-06T10:40:35.089Z,15.40
2019-05-06T10:43:15.960Z,15.50
2019-05-06T10:45:45.058Z,15.10
2019-05-06T10:48:14.149Z,15.20
2019-05-06T10:50:47.645Z,15.40
2019-05-06T10:53:18.391Z,15.30
2019-05-06T10:55:49.195Z,15.10
2019-05-06T10:58:18.321Z,15.20
2019-05-06T11:00:52.760Z,15.10
2019-05-06T11:03:22.815Z,15.10
2019-05-06T11:08:25.037Z,14.30
2019-05-06T11:10:54.125Z,14.30
2019-05-06T11:13:24.482Z,14.30
2019-05-06T11:15:55.597Z,14.50
2019-05-06T11:18:30.143Z,14.30
2019-05-06T11:21:03.451Z,14.30
2019-05-06T11:23:33.766Z,14.50
2019-05-06T11:26:04.042Z,14.70
2019-05-06T11:28:51.874Z,14.70
2019-05-06T11:31:22.984Z,14.90
2019-05-06T11:33:56.835Z,15.00
2019-05-06T11:36:26.644Z,14.80
2019-05-06T11:38:55.656Z,14.60
2019-05-06T11:41:24.835Z,14.40
2019-05-06T11:43:53.941Z,14.30
2019-05-06T11:46:23.230Z,14.20
2019-05-06T11:48:52.407Z,14.30
2019-05-06T11:51:23.197Z,14.40
2019-05-06T11:53:54.190Z,14.60
2019-05-06T11:56:23.294Z,14.60
2019-05-06T11:58:53.924Z,14.50
2019-05-06T12:01:27.527Z,14.30
2019-05-06T12:03:56.620Z,14.10
2019-05-06T12:06:25.817Z,14.00
2019-05-06T12:08:55.104Z,13.70
2019-05-06T12:11:24.209Z,13.40
2019-05-06T12:13:53.492Z,13.30
2019-05-06T12:16:26.046Z,13.30
2019-05-06T12:18:59.787Z,13.50
2019-05-06T12:21:27.961Z,13.60
2019-05-06T12:23:57.371Z,13.70
2019-05-06T12:26:26.459Z,13.80
2019-05-06T12:28:55.655Z,14.10
2019-05-06T12:31:26.903Z,14.40
2019-05-06T12:33:57.022Z,14.60
2019-05-06T12:36:28.496Z,14.60
2019-05-06T12:39:19.547Z,14.60
2019-05-06T12:42:08.652Z,14.60
2019-05-06T12:44:40.911Z,14.50
2019-05-06T12:47:20.656Z,14.40
2019-05-06T12:49:49.759Z,14.20
2019-05-06T12:52:19.813Z,14.20
2019-05-06T12:54:48.972Z,14.10
2019-05-06T12:57:18.161Z,13.90
2019-05-06T12:59:47.255Z,13.90
2019-05-06T13:02:16.454Z,13.90
2019-05-06T13:04:56.276Z,14.00
2019-05-06T13:07:23.447Z,14.20
2019-05-06T13:09:54.097Z,14.20
2019-05-06T13:12:24.765Z,14.10
2019-05-06T13:14:54.053Z,14.30
2019-05-06T13:17:24.741Z,14.40
2019-05-06T13:19:53.837Z,14.50
2019-05-06T13:22:39.526Z,14.50
2019-05-06T13:25:08.848Z,14.40
2019-05-06T13:27:38.016Z,14.40
2019-05-06T13:30:08.756Z,14.30
2019-05-06T13:32:44.814Z,14.20
2019-05-06T13:35:19.395Z,14.10
2019-05-06T13:37:52.805Z,14.20
2019-05-06T13:40:22.994Z,14.30
2019-05-06T13:43:13.358Z,14.40
2019-05-06T13:45:44.201Z,14.60
2019-05-06T13:48:14.913Z,14.70
2019-05-06T13:50:49.909Z,15.00
2019-05-06T13:53:23.011Z,15.30
2019-05-06T13:55:52.771Z,15.40
2019-05-06T13:58:21.835Z,15.40
2019-05-06T14:00:56.958Z,15.30
2019-05-06T14:03:28.632Z,15.20
2019-05-06T14:06:02.852Z,15.10
2019-05-06T14:08:33.009Z,15.00
2019-05-06T14:11:03.025Z,14.90
2019-05-06T14:13:32.803Z,14.90
2019-05-06T14:16:03.976Z,14.80
2019-05-06T14:18:37.654Z,14.70
2019-05-06T14:21:05.909Z,14.60
2019-05-06T14:23:35.111Z,14.60
2019-05-06T14:26:08.775Z,14.50
2019-05-06T14:28:54.795Z,14.50
2019-05-06T14:31:38.059Z,14.60
2019-05-06T14:34:08.558Z,14.50
2019-05-06T14:36:38.159Z,14.30
2019-05-06T14:39:25.288Z,14.20
2019-05-06T14:41:55.980Z,13.90
2019-05-06T14:44:25.838Z,13.90
2019-05-06T14:46:56.474Z,14.00
2019-05-06T14:49:26.825Z,13.90
2019-05-06T14:51:56.421Z,14.00
2019-05-06T14:54:25.781Z,14.10
2019-05-06T14:56:56.501Z,14.10
2019-05-06T14:59:25.783Z,14.00
2019-05-06T15:01:54.890Z,13.80
2019-05-06T15:04:24.265Z,13.80
2019-05-06T15:06:53.574Z,13.80
2019-05-06T15:09:23.355Z,13.70
2019-05-06T15:11:52.781Z,13.50
2019-05-06T15:14:22.676Z,13.30
2019-05-06T15:16:56.844Z,13.30
2019-05-06T15:19:27.495Z,13.20
2019-05-06T15:21:56.857Z,13.10
2019-05-06T15:24:26.086Z,13.10
2019-05-06T15:26:56.814Z,13.00
2019-05-06T15:29:26.324Z,13.00
2019-05-06T15:32:02.559Z,12.90
2019-05-06T15:34:48.732Z,12.90
2019-05-06T15:37:24.631Z,12.90
2019-05-06T15:39:54.153Z,12.90
2019-05-06T15:42:23.571Z,12.90
2019-05-06T15:44:52.776Z,12.90
2019-05-06T15:47:22.707Z,12.80
2019-05-06T15:49:54.543Z,12.70
2019-05-06T15:52:24.146Z,12.70
2019-05-06T15:54:54.497Z,12.70
2019-05-06T15:57:24.067Z,12.60
2019-05-06T15:59:53.601Z,12.60
2019-05-06T16:02:23.356Z,12.50
2019-05-06T16:04:52.971Z,12.50
2019-05-06T16:07:26.102Z,12.30
2019-05-06T16:09:55.522Z,12.30
2019-05-06T16:12:24.767Z,12.20
2019-05-06T16:14:54.127Z,12.20
2019-05-06T16:17:23.918Z,12.10
2019-05-06T16:19:53.463Z,12.00
2019-05-06T16:22:22.865Z,12.00
2019-05-06T16:24:57.813Z,12.00
2019-05-06T16:27:34.380Z,11.90
2019-05-06T16:30:04.104Z,11.90
2019-05-06T16:32:33.482Z,11.80
2019-05-06T16:35:03.927Z,11.80
2019-05-06T16:37:33.082Z,11.90
2019-05-06T16:40:02.917Z,11.80
2019-05-06T16:42:32.449Z,11.90
2019-05-06T16:45:06.868Z,11.90
2019-05-06T16:47:39.288Z,11.90
2019-05-06T16:50:13.552Z,11.80
2019-05-06T16:52:45.555Z,11.80
2019-05-06T16:55:16.294Z,11.80
2019-05-06T16:57:52.450Z,11.80
2019-05-06T17:00:23.273Z,11.80
2019-05-06T17:02:57.979Z,11.90
2019-05-06T17:05:29.624Z,11.90
2019-05-06T17:07:59.387Z,11.90
2019-05-06T17:10:29.262Z,11.90
2019-05-06T17:12:58.752Z,11.90
2019-05-06T17:15:32.209Z,11.90
2019-05-06T17:17:59.503Z,11.80
2019-05-06T17:20:32.685Z,11.70
2019-05-06T17:23:03.010Z,11.70
2019-05-06T17:25:33.567Z,11.60
2019-05-06T17:28:04.617Z,11.50
2019-05-06T17:30:44.353Z,11.40
2019-05-06T17:33:37.791Z,11.40
2019-05-06T17:36:14.687Z,11.30
2019-05-06T17:38:48.922Z,11.20
2019-05-06T17:41:18.240Z,11.20
2019-05-06T17:43:53.572Z,11.10
2019-05-06T17:46:27.111Z,11.10
2019-05-06T17:49:03.811Z,11.00
2019-05-06T17:51:37.309Z,10.90
2019-05-06T17:54:12.353Z,10.80
2019-05-06T17:56:41.987Z,10.80
2019-05-06T17:59:14.246Z,10.70
2019-05-06T18:01:45.307Z,10.60
2019-05-06T18:04:14.898Z,10.50
2019-05-06T18:06:44.161Z,10.30
2019-05-06T18:09:16.242Z,10.10
2019-05-06T18:11:57.824Z,10.00
2019-05-06T18:14:17.766Z,9.80
2019-05-06T18:16:47.403Z,9.70
2019-05-06T18:19:25.748Z,9.60
2019-05-06T18:21:54.950Z,9.50
2019-05-06T18:24:26.932Z,9.40
2019-05-06T18:26:55.731Z,9.30
2019-05-06T18:29:25.005Z,9.20
2019-05-06T18:31:56.720Z,9.10
2019-05-06T18:34:25.786Z,9.00
2019-05-06T18:36:55.901Z,8.90
2019-05-06T18:39:24.899Z,8.90
2019-05-06T18:41:56.754Z,8.80
2019-05-06T18:44:25.845Z,8.70
2019-05-06T18:46:59.705Z,8.60
2019-05-06T18:49:28.754Z,8.50
2019-05-06T18:51:57.902Z,8.50
2019-05-06T18:54:32.752Z,8.40
2019-05-06T18:57:04.341Z,8.30
2019-05-06T18:59:33.315Z,8.30
2019-05-06T19:02:05.898Z,8.20
2019-05-06T19:04:36.636Z,8.10
2019-05-06T19:07:12.879Z,8.10
2019-05-06T19:09:39.117Z,8.00
2019-05-06T19:12:08.317Z,7.90
2019-05-06T19:14:37.770Z,7.80
2019-05-06T19:17:13.008Z,7.80
2019-05-06T19:19:42.899Z,7.70
2019-05-06T19:22:13.960Z,7.70
2019-05-06T19:24:45.154Z,7.60
2019-05-06T19:27:14.353Z,7.60
2019-05-06T19:29:43.856Z,7.60
2019-05-06T19:32:13.464Z,7.50
2019-05-06T19:34:42.558Z,7.50
2019-05-06T19:37:11.655Z,7.40
2019-05-06T19:39:44.647Z,7.40
2019-05-06T19:42:13.732Z,7.40
2019-05-06T19:44:45.479Z,7.30
2019-05-06T19:47:14.894Z,7.20
2019-05-06T19:49:43.898Z,7.20
2019-05-06T19:52:13.042Z,7.20
2019-05-06T19:54:42.554Z,7.20
2019-05-06T19:57:12.452Z,7.10
2019-05-06T19:59:42.623Z,7.10
2019-05-06T20:02:13.569Z,7.00
2019-05-06T20:04:44.716Z,7.00
2019-05-06T20:07:31.926Z,7.00
2019-05-06T20:10:23.007Z,7.00
2019-05-06T20:13:02.676Z,6.90
2019-05-06T20:15:34.034Z,6.90
2019-05-06T20:18:03.730Z,7.00
2019-05-06T20:20:35.006Z,6.90
2019-05-06T20:23:03.844Z,6.90
2019-05-06T20:25:36.368Z,7.00
2019-05-06T20:28:03.843Z,6.90
2019-05-06T20:30:33.921Z,6.90
2019-05-06T20:33:02.927Z,6.90
2019-05-06T20:35:32.670Z,6.90
2019-05-06T20:38:02.774Z,6.90
2019-05-06T20:40:32.714Z,6.80
2019-05-06T20:43:16.622Z,6.80
2019-05-06T20:45:35.546Z,6.80
2019-05-06T20:48:06.338Z,6.70
2019-05-06T20:50:35.660Z,6.70
2019-05-06T20:53:04.890Z,6.70
2019-05-06T20:55:35.765Z,6.70
2019-05-06T20:58:04.916Z,6.70
2019-05-06T21:00:34.012Z,6.70
2019-05-06T21:03:03.206Z,6.70
2019-05-06T21:05:32.417Z,6.70
2019-05-06T21:08:02.623Z,6.70
2019-05-06T21:10:32.976Z,6.80
2019-05-06T21:13:04.301Z,6.80
2019-05-06T21:15:33.392Z,6.80
2019-05-06T21:18:04.429Z,6.80
2019-05-06T21:20:33.243Z,6.80
2019-05-06T21:23:02.544Z,6.90
2019-05-06T21:25:32.270Z,7.00
2019-05-06T21:28:02.941Z,7.00
2019-05-06T21:30:32.418Z,7.10
2019-05-06T21:33:01.768Z,7.10
2019-05-06T21:35:33.526Z,7.20
2019-05-06T21:38:02.718Z,7.30
2019-05-06T21:40:32.315Z,7.40
2019-05-06T21:43:02.072Z,7.40
2019-05-06T21:45:33.072Z,7.50
2019-05-06T21:48:02.801Z,7.50
2019-05-06T21:50:33.065Z,7.60
2019-05-06T21:53:02.937Z,7.60
2019-05-06T21:55:32.417Z,7.60
2019-05-06T21:58:02.341Z,7.60
2019-05-06T22:00:33.465Z,7.60
2019-05-06T22:03:05.245Z,7.70
2019-05-06T22:05:37.156Z,7.70
2019-05-06T22:08:06.196Z,7.80
2019-05-06T22:10:35.294Z,7.80
2019-05-06T22:13:04.418Z,7.80
2019-05-06T22:15:33.681Z,7.90
2019-05-06T22:18:02.778Z,7.90
2019-05-06T22:20:33.339Z,7.90
2019-05-06T22:23:02.401Z,7.90
2019-05-06T22:25:32.664Z,7.90
2019-05-06T22:28:02.474Z,7.80
2019-05-06T22:30:32.869Z,7.80
2019-05-06T22:33:03.644Z,7.80
2019-05-06T22:38:21.790Z,7.70
2019-05-06T22:40:52.861Z,7.60
2019-05-06T22:43:22.007Z,7.60
2019-05-06T22:45:53.196Z,7.50
2019-05-06T22:48:22.844Z,7.50
2019-05-06T22:50:53.048Z,7.50
2019-05-06T22:53:24.763Z,7.40
2019-05-06T22:55:54.240Z,7.40
2019-05-06T22:58:23.315Z,7.30
2019-05-06T23:00:54.068Z,7.30
2019-05-06T23:03:34.566Z,7.30
2019-05-06T23:06:05.448Z,7.20
2019-05-06T23:08:34.643Z,7.20
2019-05-06T23:11:03.745Z,7.10
2019-05-06T23:13:32.777Z,7.10
2019-05-06T23:16:02.056Z,7.00
2019-05-06T23:18:32.077Z,7.00
2019-05-06T23:21:02.462Z,6.90
2019-05-06T23:23:32.880Z,6.90
2019-05-06T23:26:19.094Z,6.90
2019-05-06T23:28:48.292Z,6.90
2019-05-06T23:31:19.704Z,6.90
2019-05-06T23:33:50.688Z,6.90
2019-05-06T23:36:19.876Z,6.90
2019-05-06T23:39:25.426Z,6.90
2019-05-06T23:42:32.338Z,6.90
2019-05-06T23:45:38.059Z,6.90
2019-05-06T23:48:43.516Z,6.90
2019-05-06T23:51:48.954Z,6.90
2019-05-06T23:54:53.991Z,6.90
2019-05-06T23:57:22.527Z,6.90
2019-05-06T23:59:54.591Z,6.90
